Terminal Aerodrome Forecast
Issued by NWS Knoxville/Tri Cities, TN

Home | Current Version | Previous Version | Text Only | Print | Product List | Glossary On
Versions: 1 2 3 4 5 6 7 8 9 10 11 12 13 14 15 16 17 18 19 20 21 22 23 24 25 26 27 28 29 30
000
FTUS44 KMRX 310349 AAA
TAFTYS
TAF AMD
KTYS 310349Z 3104/3124 22010KT P6SM VCTS SCT040CB BKN060
      TEMPO 3104/3105 22015G25KT 2SM +TSRA BKN020CB
     FM310600 24003KT 6SM BR SCT060 BKN120
     FM310900 00000KT 5SM BR SCT150 BKN250
     FM311300 23004KT P6SM SCT035 BKN120
     FM311800 24012KT P6SM BKN100=

USA.gov is the U.S. government's official web portal to all federal, state and local government web resources and services.